Time;durP1;ratioP1;P1;durP2;ratioP2;P2;SDS_P1;SDS_P2;PMS_P1;PMS_P2;Temp;Humidity;BMP_temperature;BMP_pressure;BME280_temperature;BME280_humidity;BME280_pressure;Samples;Min_cycle;Max_cycle;Signal;HPM_P1;HPM_P2
2024/04/13 00:01:23;;;;;;;10.97;6.60;;;16.90;99.90;;;;;;5451930;26;20220;-80
2024/04/13 00:03:50;;;;;;;14.23;7.07;;;16.90;99.90;;;;;;5451275;26;20260;-79
2024/04/13 00:06:17;;;;;;;9.93;7.07;;;16.80;99.90;;;;;;5449819;26;20227;-81
2024/04/13 00:08:42;;;;;;;10.73;6.37;;;16.90;99.90;;;;;;5453525;26;20219;-80
2024/04/13 00:11:09;;;;;;;11.70;6.97;;;16.90;99.90;;;;;;5454881;26;20322;-81
2024/04/13 00:13:38;;;;;;;8.53;6.80;;;16.90;99.90;;;;;;5453023;26;20268;-79
2024/04/13 00:16:04;;;;;;;12.23;7.40;;;16.90;99.90;;;;;;5454618;26;20218;-79
2024/04/13 00:18:33;;;;;;;11.73;6.73;;;16.90;99.90;;;;;;5452872;26;20246;-80
2024/04/13 00:21:00;;;;;;;9.20;6.13;;;16.90;99.90;;;;;;5454971;26;20221;-80
2024/04/13 00:23:25;;;;;;;9.50;6.67;;;16.80;99.90;;;;;;5454504;26;20218;-79
2024/04/13 00:25:52;;;;;;;10.60;6.83;;;16.80;99.90;;;;;;5452906;26;20236;-80
2024/04/13 00:28:18;;;;;;;10.70;6.90;;;16.70;99.90;;;;;;5454455;26;20220;-79
2024/04/13 00:30:44;;;;;;;10.03;6.80;;;16.70;99.90;;;;;;5454800;26;20703;-79
2024/04/13 00:33:10;;;;;;;11.07;7.13;;;16.80;99.90;;;;;;5452741;26;20244;-79
2024/04/13 00:35:36;;;;;;;8.90;6.93;;;16.80;99.90;;;;;;5455057;26;20393;-79
2024/04/13 00:38:01;;;;;;;10.37;6.47;;;16.80;99.90;;;;;;5453847;26;20702;-81
2024/04/13 00:40:27;;;;;;;9.87;6.47;;;16.80;99.90;;;;;;5452611;26;20225;-84
2024/04/13 00:42:57;;;;;;;10.87;6.67;;;16.70;99.90;;;;;;5453952;26;20213;-79
2024/04/13 00:45:27;;;;;;;10.67;6.27;;;16.70;99.90;;;;;;5452782;26;20223;-79
2024/04/13 00:47:53;;;;;;;8.80;6.67;;;16.60;99.90;;;;;;5454372;26;20812;-78
2024/04/13 00:50:19;;;;;;;9.07;6.83;;;16.60;99.90;;;;;;5454166;26;20214;-80
2024/04/13 00:52:47;;;;;;;12.70;6.87;;;16.50;99.90;;;;;;5453707;26;20214;-80
2024/04/13 00:55:15;;;;;;;12.50;7.13;;;16.50;99.90;;;;;;5454315;26;20341;-79
2024/04/13 00:57:42;;;;;;;10.07;6.80;;;16.50;99.90;;;;;;5452387;26;20221;-79
2024/04/13 01:00:12;;;;;;;10.50;7.17;;;16.50;99.90;;;;;;5454361;26;20224;-80
2024/04/13 01:02:42;;;;;;;11.53;7.43;;;16.40;99.90;;;;;;5452577;26;20250;-79
2024/04/13 01:05:13;;;;;;;12.17;6.77;;;16.50;99.90;;;;;;5454184;26;20213;-80
2024/04/13 01:07:39;;;;;;;12.83;7.57;;;16.40;99.90;;;;;;5453880;26;20705;-80
2024/04/13 01:10:11;;;;;;;11.30;7.30;;;16.40;99.90;;;;;;5452625;26;20579;-80
2024/04/13 01:12:39;;;;;;;9.47;7.03;;;16.40;99.90;;;;;;5452111;26;20256;-81
2024/04/13 01:15:05;;;;;;;12.93;7.37;;;16.40;99.90;;;;;;5452086;26;20828;-81
2024/04/13 01:17:30;;;;;;;8.00;6.63;;;16.50;99.90;;;;;;5453832;26;20234;-79
2024/04/13 01:19:56;;;;;;;11.00;7.50;;;16.50;99.90;;;;;;5452671;26;20665;-79
2024/04/13 01:22:22;;;;;;;10.93;7.17;;;16.50;99.90;;;;;;5453964;26;20221;-86
2024/04/13 01:24:49;;;;;;;13.63;7.00;;;16.50;99.90;;;;;;5452038;26;20567;-80
2024/04/13 01:27:15;;;;;;;10.17;7.30;;;16.50;99.90;;;;;;5453872;26;20696;-78
2024/04/13 01:29:41;;;;;;;9.33;7.07;;;16.40;99.90;;;;;;5452085;26;20232;-82
2024/04/13 01:32:07;;;;;;;12.17;7.57;;;16.50;99.90;;;;;;5451943;26;20327;-79
2024/04/13 01:34:33;;;;;;;10.27;7.33;;;16.50;99.90;;;;;;5453808;26;20258;-79
2024/04/13 01:36:58;;;;;;;13.47;7.77;;;16.50;99.90;;;;;;5453275;26;20301;-80
2024/04/13 01:39:24;;;;;;;14.07;8.10;;;16.50;99.90;;;;;;5453422;26;20321;-80
2024/04/13 01:41:54;;;;;;;8.60;7.60;;;16.50;99.90;;;;;;5453978;26;20731;-79
2024/04/13 01:44:20;;;;;;;11.20;8.30;;;16.50;99.90;;;;;;5453729;26;20269;-80
2024/04/13 01:46:46;;;;;;;12.90;8.50;;;16.50;99.90;;;;;;5453366;26;20223;-79
2024/04/13 01:49:11;;;;;;;11.63;8.30;;;16.50;99.90;;;;;;5453605;26;20224;-80
2024/04/13 01:51:38;;;;;;;12.53;8.37;;;16.50;99.90;;;;;;5453248;26;20218;-79
2024/04/13 01:54:04;;;;;;;12.47;8.17;;;16.50;99.90;;;;;;5453680;26;20251;-79
2024/04/13 01:56:30;;;;;;;16.27;9.13;;;16.50;99.90;;;;;;5451331;26;20222;-79
2024/04/13 01:58:56;;;;;;;12.87;8.63;;;16.50;99.90;;;;;;5451705;26;20605;-79
2024/04/13 02:01:22;;;;;;;11.93;8.47;;;16.50;99.90;;;;;;5451589;26;20284;-80
2024/04/13 02:03:49;;;;;;;12.17;9.03;;;16.50;99.90;;;;;;5453530;26;20217;-79
2024/04/13 02:06:15;;;;;;;11.80;9.13;;;16.50;99.90;;;;;;5453018;26;20218;-79
2024/04/13 02:08:40;;;;;;;14.40;9.30;;;16.50;99.90;;;;;;5451707;26;20247;-79
2024/04/13 02:11:06;;;;;;;11.53;8.50;;;16.50;99.90;;;;;;5453025;26;20623;-79
2024/04/13 02:13:33;;;;;;;12.63;8.97;;;16.40;99.90;;;;;;5453282;26;20228;-79
2024/04/13 02:16:00;;;;;;;12.80;9.37;;;16.30;99.90;;;;;;5451208;26;20225;-79
2024/04/13 02:18:25;;;;;;;13.63;9.00;;;16.30;99.90;;;;;;5453148;26;20226;-80
2024/04/13 02:20:51;;;;;;;14.13;9.90;;;16.30;99.90;;;;;;5451083;26;20319;-79
2024/04/13 02:23:17;;;;;;;12.37;9.70;;;16.20;99.90;;;;;;5451195;26;20225;-80
2024/04/13 02:25:47;;;;;;;14.50;9.00;;;16.10;99.90;;;;;;5453011;26;20218;-79
2024/04/13 02:28:14;;;;;;;11.63;8.63;;;16.10;99.90;;;;;;5453129;26;20278;-78
2024/04/13 02:30:39;;;;;;;14.37;8.87;;;16.10;99.90;;;;;;5452487;26;20251;-80
2024/04/13 02:33:06;;;;;;;11.43;8.57;;;16.00;99.90;;;;;;5452821;26;20225;-79
2024/04/13 02:35:32;;;;;;;14.10;8.83;;;16.00;99.90;;;;;;5450556;26;20312;-79
2024/04/13 02:37:58;;;;;;;11.93;8.50;;;16.00;99.90;;;;;;5450860;26;20232;-79
2024/04/13 02:40:24;;;;;;;12.23;8.83;;;16.10;99.90;;;;;;5452882;26;20256;-80
2024/04/13 02:42:53;;;;;;;14.10;9.40;;;16.10;99.90;;;;;;5452953;26;20324;-81
2024/04/13 02:45:19;;;;;;;13.87;8.77;;;16.10;99.90;;;;;;5452876;26;20221;-80
2024/04/13 02:47:45;;;;;;;13.40;8.27;;;16.10;99.90;;;;;;5452668;26;20280;-81
2024/04/13 02:50:11;;;;;;;11.90;8.40;;;16.10;99.90;;;;;;5450687;26;20339;-79
2024/04/13 02:52:38;;;;;;;11.80;8.87;;;16.10;99.90;;;;;;5452210;26;20561;-79
2024/04/13 02:55:04;;;;;;;11.33;8.13;;;16.10;99.90;;;;;;5452755;26;20692;-79
2024/04/13 02:57:30;;;;;;;12.17;8.27;;;16.00;99.90;;;;;;5452714;26;20253;-78
2024/04/13 02:59:59;;;;;;;11.00;8.50;;;15.90;99.90;;;;;;5452812;26;20255;-78
2024/04/13 03:02:24;;;;;;;11.83;8.47;;;15.90;99.90;;;;;;5452324;26;20264;-79
2024/04/13 03:04:50;;;;;;;13.50;8.77;;;15.90;99.90;;;;;;5452232;26;20228;-79
2024/04/13 03:07:17;;;;;;;12.60;8.47;;;16.10;99.90;;;;;;5452296;26;20316;-79
2024/04/13 03:09:43;;;;;;;12.13;8.70;;;16.30;99.90;;;;;;5452665;26;20322;-80
2024/04/13 03:12:08;;;;;;;12.87;8.60;;;16.40;99.90;;;;;;5452226;26;20220;-79
2024/04/13 03:14:34;;;;;;;11.50;8.57;;;16.40;99.90;;;;;;5452418;26;20646;-78
2024/04/13 03:17:00;;;;;;;10.10;8.80;;;16.40;99.90;;;;;;5452033;26;20268;-79
2024/04/13 03:19:26;;;;;;;9.07;8.13;;;16.50;99.90;;;;;;5452189;26;20223;-79
2024/04/13 03:21:51;;;;;;;11.07;8.33;;;16.40;99.90;;;;;;5452302;26;20218;-79
2024/04/13 03:24:18;;;;;;;12.93;8.80;;;16.30;99.90;;;;;;5452647;26;20774;-79
2024/04/13 03:26:46;;;;;;;12.07;8.50;;;16.30;99.90;;;;;;5452501;26;20244;-79
2024/04/13 03:29:12;;;;;;;11.93;7.97;;;16.20;99.90;;;;;;5451911;26;20222;-79
2024/04/13 03:31:37;;;;;;;10.93;9.10;;;16.20;99.90;;;;;;5450226;26;20579;-80
2024/04/13 03:34:04;;;;;;;11.90;8.50;;;16.00;99.90;;;;;;5452171;26;20213;-79
2024/04/13 03:36:31;;;;;;;12.00;8.30;;;15.90;99.90;;;;;;5452010;26;20693;-79
2024/04/13 03:38:56;;;;;;;9.83;7.77;;;15.90;99.90;;;;;;5451723;26;20229;-80
2024/04/13 03:41:22;;;;;;;10.17;8.30;;;15.90;99.90;;;;;;5451728;26;20756;-78
2024/04/13 03:43:48;;;;;;;12.90;8.07;;;16.00;99.90;;;;;;5449098;26;20336;-80
2024/04/13 03:46:14;;;;;;;10.83;8.83;;;16.00;99.90;;;;;;5449696;26;20666;-79
2024/04/13 03:48:41;;;;;;;11.53;8.50;;;16.00;99.90;;;;;;5451438;26;20225;-80
2024/04/13 03:51:11;;;;;;;12.57;7.93;;;15.90;99.90;;;;;;5450111;26;20610;-79
2024/04/13 03:53:37;;;;;;;10.30;8.30;;;16.00;99.90;;;;;;5449690;26;20243;-80
2024/04/13 03:56:03;;;;;;;12.77;8.60;;;16.00;99.90;;;;;;5451551;26;20302;-80
2024/04/13 03:58:30;;;;;;;12.00;8.13;;;16.00;99.90;;;;;;5451115;26;20317;-78
2024/04/13 04:00:56;;;;;;;13.17;8.70;;;15.90;99.90;;;;;;5449247;26;20609;-78
2024/04/13 04:03:22;;;;;;;11.43;8.77;;;16.00;99.90;;;;;;5449624;26;20698;-79
2024/04/13 04:05:52;;;;;;;10.07;7.97;;;16.00;99.90;;;;;;5451742;26;20269;-79
2024/04/13 04:08:18;;;;;;;10.20;7.33;;;15.90;99.90;;;;;;5449763;26;20821;-80
2024/04/13 04:10:44;;;;;;;11.23;8.00;;;15.80;99.90;;;;;;5451650;26;20217;-79
2024/04/13 04:13:10;;;;;;;8.77;7.43;;;15.80;99.90;;;;;;5451158;26;20248;-80
2024/04/13 04:15:36;;;;;;;10.40;7.90;;;15.80;99.90;;;;;;5451082;26;20268;-80
2024/04/13 04:18:05;;;;;;;12.47;7.23;;;15.80;99.90;;;;;;5449137;26;20237;-79
2024/04/13 04:20:31;;;;;;;10.83;7.30;;;15.90;99.90;;;;;;5451142;26;20551;-79
2024/04/13 04:22:57;;;;;;;9.03;7.40;;;15.90;99.90;;;;;;5451134;26;20233;-80
2024/04/13 04:25:24;;;;;;;10.27;7.70;;;15.90;99.90;;;;;;5449188;26;20762;-79
2024/04/13 04:27:50;;;;;;;10.27;7.93;;;16.00;99.90;;;;;;5451194;26;20214;-79
2024/04/13 04:30:17;;;;;;;16.17;7.90;;;16.00;99.90;;;;;;5448833;26;20372;-79
2024/04/13 04:32:46;;;;;;;10.43;7.40;;;16.00;99.90;;;;;;5451063;26;20217;-79
2024/04/13 04:35:11;;;;;;;11.37;8.10;;;15.90;99.90;;;;;;5451275;26;20318;-78
2024/04/13 04:37:37;;;;;;;13.43;7.73;;;15.90;99.90;;;;;;5451087;26;20218;-80
2024/04/13 04:40:04;;;;;;;11.17;8.07;;;15.90;99.90;;;;;;5450693;26;20287;-79
2024/04/13 04:42:29;;;;;;;10.20;7.37;;;15.80;99.90;;;;;;5450925;26;20278;-77
2024/04/13 04:44:55;;;;;;;12.27;8.03;;;15.80;99.90;;;;;;5450647;26;20214;-79
2024/04/13 04:47:21;;;;;;;11.17;7.80;;;15.80;99.90;;;;;;5450627;26;20253;-80
2024/04/13 04:49:48;;;;;;;10.07;7.63;;;15.80;99.90;;;;;;5448843;26;20668;-79
2024/04/13 04:52:14;;;;;;;10.83;7.27;;;15.90;99.90;;;;;;5450867;26;20217;-79
2024/04/13 04:54:40;;;;;;;10.47;7.90;;;15.80;99.90;;;;;;5452987;26;20285;-80
2024/04/13 04:57:06;;;;;;;13.03;8.73;;;15.80;99.90;;;;;;5452510;26;20703;-79
2024/04/13 04:59:31;;;;;;;10.70;7.60;;;15.80;99.90;;;;;;5452152;26;20250;-79
2024/04/13 05:01:57;;;;;;;9.80;7.47;;;15.70;99.90;;;;;;5454383;26;20217;-80
2024/04/13 05:04:24;;;;;;;12.77;7.30;;;15.70;99.90;;;;;;5454365;26;20299;-79
2024/04/13 05:06:50;;;;;;;11.30;7.80;;;15.70;99.90;;;;;;5452264;26;20256;-80
2024/04/13 05:09:16;;;;;;;10.20;7.20;;;15.70;99.90;;;;;;5454162;26;20213;-78
2024/04/13 05:11:41;;;;;;;11.63;7.77;;;15.80;99.90;;;;;;5454397;26;20288;-80
2024/04/13 05:14:10;;;;;;;9.23;7.17;;;15.90;99.90;;;;;;5454174;26;20782;-79
2024/04/13 05:16:39;;;;;;;10.70;7.93;;;15.70;99.90;;;;;;5452015;26;20269;-79
2024/04/13 05:19:04;;;;;;;10.30;7.53;;;15.70;99.90;;;;;;5454057;26;20299;-80
2024/04/13 05:21:30;;;;;;;10.90;8.10;;;15.70;99.90;;;;;;5452166;26;20721;-83
2024/04/13 05:23:56;;;;;;;10.20;7.77;;;15.70;99.90;;;;;;5452032;26;20565;-79
2024/04/13 05:26:22;;;;;;;12.53;8.57;;;15.60;99.90;;;;;;5453521;26;20320;-79
2024/04/13 05:28:48;;;;;;;11.33;7.70;;;15.60;99.90;;;;;;5451362;26;20247;-78
2024/04/13 05:31:14;;;;;;;11.30;7.87;;;15.70;99.90;;;;;;5451719;26;20221;-79
2024/04/13 05:33:40;;;;;;;12.40;7.70;;;15.70;99.90;;;;;;5453368;26;20225;-80
2024/04/13 05:36:07;;;;;;;11.03;7.30;;;15.70;99.90;;;;;;5453661;26;20217;-79
2024/04/13 05:38:33;;;;;;;9.67;6.77;;;15.60;99.90;;;;;;5453857;26;20342;-79
2024/04/13 05:40:59;;;;;;;7.97;6.07;;;15.60;99.90;;;;;;5453690;26;20729;-79
2024/04/13 05:43:25;;;;;;;10.30;6.70;;;15.60;99.90;;;;;;5451243;26;20262;-79
2024/04/13 05:45:51;;;;;;;14.00;6.17;;;15.50;99.90;;;;;;5453568;26;20260;-79
2024/04/13 05:48:21;;;;;;;9.80;6.63;;;15.50;99.90;;;;;;5451799;26;20229;-79
2024/04/13 05:50:57;;;;;;;7.90;6.37;;;15.50;99.90;;;;;;5451233;26;20233;-79
2024/04/13 05:53:23;;;;;;;9.87;6.53;;;15.50;99.90;;;;;;5451528;26;20250;-79
2024/04/13 05:55:50;;;;;;;9.97;6.43;;;15.60;99.90;;;;;;5453239;26;20260;-79
2024/04/13 05:58:16;;;;;;;9.23;6.17;;;15.60;99.90;;;;;;5453008;26;20218;-78
2024/04/13 06:00:42;;;;;;;7.60;6.30;;;15.60;99.90;;;;;;5453013;26;20227;-79
2024/04/13 06:03:08;;;;;;;11.33;6.50;;;15.60;99.90;;;;;;5451615;26;20227;-85
2024/04/13 06:05:33;;;;;;;11.47;7.20;;;15.60;99.90;;;;;;5452230;26;20216;-79
2024/04/13 06:07:59;;;;;;;12.53;6.60;;;15.70;99.90;;;;;;5451829;26;20335;-79
2024/04/13 06:10:25;;;;;;;10.27;6.03;;;15.80;99.90;;;;;;5453213;26;20213;-79
2024/04/13 06:12:50;;;;;;;8.77;6.20;;;15.90;99.90;;;;;;5452988;26;20315;-79
2024/04/13 06:15:16;;;;;;;12.13;6.73;;;15.90;99.90;;;;;;5453080;26;20236;-81
2024/04/13 06:17:42;;;;;;;10.70;6.80;;;16.00;99.90;;;;;;5453086;26;20283;-80
2024/04/13 06:20:08;;;;;;;11.03;6.37;;;16.10;99.90;;;;;;5451243;26;20283;-79
2024/04/13 06:22:37;;;;;;;10.03;6.03;;;16.20;99.90;;;;;;5451090;26;20720;-79
2024/04/13 06:25:09;;;;;;;10.87;6.33;;;16.20;99.90;;;;;;5452908;26;20219;-79
2024/04/13 06:27:35;;;;;;;11.33;6.30;;;16.20;99.90;;;;;;5452666;26;20699;-80
2024/04/13 06:30:01;;;;;;;9.30;7.00;;;16.20;99.90;;;;;;5452961;26;20789;-80
2024/04/13 06:32:26;;;;;;;10.40;6.90;;;16.20;99.90;;;;;;5452627;26;20222;-80
2024/04/13 06:34:52;;;;;;;10.93;6.47;;;16.30;99.90;;;;;;5452966;26;20335;-79
2024/04/13 06:37:18;;;;;;;9.07;7.00;;;16.20;99.90;;;;;;5450903;26;20697;-80
2024/04/13 06:39:44;;;;;;;9.30;6.77;;;16.30;99.90;;;;;;5450954;26;20244;-80
2024/04/13 06:42:10;;;;;;;7.87;6.07;;;16.40;99.90;;;;;;5452465;26;20703;-80
2024/04/13 06:44:35;;;;;;;8.97;6.20;;;16.50;99.90;;;;;;5452613;26;20265;-80
2024/04/13 06:47:01;;;;;;;11.00;6.77;;;16.50;99.90;;;;;;5452513;26;20224;-79
2024/04/13 06:49:27;;;;;;;11.77;6.93;;;16.60;99.90;;;;;;5452794;26;20525;-80
2024/04/13 06:51:53;;;;;;;10.13;6.47;;;16.70;99.90;;;;;;5450187;26;20301;-80
2024/04/13 06:54:19;;;;;;;10.20;6.90;;;16.70;99.90;;;;;;5450839;26;20249;-80
2024/04/13 06:56:45;;;;;;;10.33;6.57;;;16.70;99.90;;;;;;5451627;26;20624;-80
2024/04/13 06:59:11;;;;;;;10.03;6.47;;;16.80;99.90;;;;;;5450580;26;20714;-81
2024/04/13 07:01:36;;;;;;;8.90;6.33;;;16.90;99.90;;;;;;5451535;26;20217;-78
2024/04/13 07:04:02;;;;;;;11.90;6.63;;;17.00;99.90;;;;;;5452372;26;20216;-80
2024/04/13 07:06:30;;;;;;;9.13;6.00;;;17.00;99.90;;;;;;5452198;26;20216;-80
2024/04/13 07:08:56;;;;;;;12.73;6.30;;;17.10;99.90;;;;;;5451879;26;20217;-80
2024/04/13 07:11:21;;;;;;;12.13;6.03;;;17.20;99.90;;;;;;5451011;26;20213;-81
2024/04/13 07:13:47;;;;;;;8.40;6.07;;;17.30;99.90;;;;;;5449507;26;20604;-82
2024/04/13 07:16:13;;;;;;;9.23;5.97;;;17.40;99.90;;;;;;5449644;26;20223;-79
2024/04/13 07:18:39;;;;;;;10.30;6.07;;;17.40;99.90;;;;;;5448565;26;20223;-81
2024/04/13 07:21:05;;;;;;;8.80;5.63;;;17.50;98.30;;;;;;5450279;26;20221;-80
2024/04/13 07:23:30;;;;;;;8.23;6.00;;;17.60;98.50;;;;;;5450098;26;20687;-80
2024/04/13 07:25:57;;;;;;;10.23;5.90;;;17.70;95.00;;;;;;5451588;26;20215;-79
2024/04/13 07:28:23;;;;;;;11.07;5.50;;;17.70;94.60;;;;;;5451914;26;20598;-80
2024/04/13 07:30:49;;;;;;;9.40;5.60;;;17.70;96.30;;;;;;5451735;26;20672;-79
2024/04/13 07:33:15;;;;;;;9.47;6.43;;;17.60;95.90;;;;;;5449747;26;20249;-80
2024/04/13 07:35:41;;;;;;;11.17;6.13;;;17.70;94.70;;;;;;5451702;26;20215;-80
2024/04/13 07:38:07;;;;;;;8.07;6.33;;;17.90;92.00;;;;;;5451279;26;20261;-80
2024/04/13 07:40:32;;;;;;;11.63;6.00;;;17.90;92.00;;;;;;5449570;26;20548;-85
2024/04/13 07:42:58;;;;;;;10.23;5.90;;;18.00;90.20;;;;;;5451204;26;20239;-80
2024/04/13 07:45:24;;;;;;;8.90;6.27;;;18.00;87.40;;;;;;5451317;26;20214;-81
2024/04/13 07:47:49;;;;;;;10.20;6.30;;;18.20;84.90;;;;;;5449106;26;20683;-79
2024/04/13 07:50:15;;;;;;;8.27;6.17;;;18.20;79.00;;;;;;5451677;26;20256;-80
2024/04/13 07:52:41;;;;;;;6.73;5.93;;;18.10;82.50;;;;;;5450115;26;20218;-80
2024/04/13 07:55:06;;;;;;;10.27;6.10;;;18.20;83.70;;;;;;5449336;26;20276;-80
2024/04/13 07:57:32;;;;;;;11.37;6.70;;;18.20;78.20;;;;;;5451654;26;20251;-79
2024/04/13 07:59:58;;;;;;;7.63;5.77;;;18.40;71.60;;;;;;5450681;26;20219;-79
2024/04/13 08:02:24;;;;;;;7.00;5.30;;;18.50;65.50;;;;;;5450978;26;20229;-79
2024/04/13 08:04:50;;;;;;;8.63;5.53;;;18.50;65.50;;;;;;5450461;26;20219;-80
2024/04/13 08:07:15;;;;;;;8.23;5.70;;;18.50;66.40;;;;;;5448919;26;20268;-80
2024/04/13 08:09:41;;;;;;;9.43;5.47;;;18.50;67.80;;;;;;5451147;26;20262;-80
2024/04/13 08:12:11;;;;;;;7.20;5.77;;;18.70;64.50;;;;;;5450771;26;20650;-80
2024/04/13 08:14:37;;;;;;;8.10;5.70;;;18.90;58.90;;;;;;5449264;26;20336;-80
2024/04/13 08:17:03;;;;;;;7.73;5.37;;;19.00;56.50;;;;;;5448692;26;20247;-80
2024/04/13 08:19:29;;;;;;;9.10;6.10;;;19.20;52.30;;;;;;5448463;26;20221;-80
2024/04/13 08:21:55;;;;;;;7.63;5.43;;;19.20;53.00;;;;;;5449680;26;20247;-80
2024/04/13 08:24:20;;;;;;;6.90;5.50;;;19.20;51.90;;;;;;5450695;26;20657;-80
2024/04/13 08:26:46;;;;;;;7.47;4.97;;;19.20;49.20;;;;;;5448698;26;20272;-80
2024/04/13 08:29:12;;;;;;;7.97;5.10;;;19.20;48.00;;;;;;5451783;26;20695;-80
2024/04/13 08:31:38;;;;;;;7.53;5.37;;;19.20;47.10;;;;;;5452123;26;20600;-79
2024/04/13 08:34:05;;;;;;;12.27;5.93;;;19.30;41.40;;;;;;5452243;26;20666;-79
2024/04/13 08:36:31;;;;;;;7.90;5.07;;;19.30;35.70;;;;;;5454035;26;20220;-80
2024/04/13 08:38:57;;;;;;;7.17;5.50;;;19.40;36.90;;;;;;5453769;26;20564;-79
2024/04/13 08:41:54;;;;;;;9.53;5.20;;;19.40;35.10;;;;;;5453605;26;20291;-80
2024/04/13 08:44:20;;;;;;;11.23;5.60;;;19.40;32.70;;;;;;5453235;26;20212;-80
2024/04/13 08:46:46;;;;;;;8.80;5.50;;;19.50;31.30;;;;;;5453280;26;20220;-78
2024/04/13 08:49:15;;;;;;;11.60;5.60;;;19.60;29.20;;;;;;5453821;26;20682;-80
2024/04/13 08:51:43;;;;;;;12.13;5.70;;;19.60;30.90;;;;;;5451611;26;20221;-80
2024/04/13 08:54:09;;;;;;;9.90;5.23;;;19.80;27.70;;;;;;5453869;26;20225;-81
2024/04/13 08:56:39;;;;;;;6.57;4.73;;;19.80;25.30;;;;;;5453914;26;20224;-81
2024/04/13 08:59:11;;;;;;;7.63;5.10;;;19.80;24.70;;;;;;5451693;26;20748;-80
2024/04/13 09:01:38;;;;;;;6.93;5.33;;;19.90;25.90;;;;;;5454119;26;20701;-80
2024/04/13 09:04:04;;;;;;;8.27;4.80;;;19.90;24.10;;;;;;5453290;26;20215;-79
2024/04/13 09:06:31;;;;;;;8.17;5.20;;;19.90;21.80;;;;;;5452953;26;20217;-80
2024/04/13 09:09:03;;;;;;;8.27;5.03;;;20.00;20.30;;;;;;5453283;26;20216;-80
2024/04/13 09:11:29;;;;;;;8.73;5.30;;;20.10;18.50;;;;;;5451574;26;20225;-79
2024/04/13 09:13:55;;;;;;;11.10;5.67;;;20.40;15.40;;;;;;5452994;26;20608;-80
2024/04/13 09:16:21;;;;;;;8.77;4.80;;;20.40;14.70;;;;;;5453006;26;20225;-79
2024/04/13 09:18:47;;;;;;;9.90;4.73;;;20.50;11.20;;;;;;5451717;26;20573;-79
2024/04/13 09:21:12;;;;;;;7.97;4.50;;;20.50;10.90;;;;;;5450583;26;20230;-81
2024/04/13 09:23:39;;;;;;;8.47;4.50;;;20.50;9.40;;;;;;5453391;26;20561;-80
2024/04/13 09:26:06;;;;;;;8.27;4.60;;;20.60;4.30;;;;;;5453311;26;20297;-80
2024/04/13 09:28:43;;;;;;;8.23;4.60;;;20.70;6.10;;;;;;5451549;26;20222;-79
2024/04/13 09:31:11;;;;;;;8.03;4.20;;;20.80;6.90;;;;;;5452497;26;20635;-79
2024/04/13 09:33:37;;;;;;;7.73;4.33;;;20.90;7.00;;;;;;5451311;26;20252;-81
2024/04/13 09:36:03;;;;;;;8.87;4.80;;;20.90;7.40;;;;;;5452007;26;20230;-81
2024/04/13 09:38:29;;;;;;;7.87;4.93;;;20.90;10.40;;;;;;5451756;26;20249;-80
2024/04/13 09:41:02;;;;;;;5.97;4.20;;;20.90;13.00;;;;;;5449761;26;20222;-80
2024/04/13 09:43:28;;;;;;;8.83;4.30;;;21.00;12.70;;;;;;5453075;26;20219;-80
2024/04/13 09:46:01;;;;;;;7.27;4.40;;;21.10;11.30;;;;;;5453153;26;20218;-80
2024/04/13 09:48:27;;;;;;;9.13;4.73;;;21.10;12.30;;;;;;5453238;26;20213;-81
2024/04/13 09:50:53;;;;;;;9.20;4.70;;;21.20;12.40;;;;;;5452822;26;20222;-79
2024/04/13 09:53:19;;;;;;;7.70;4.83;;;21.20;13.70;;;;;;5452646;26;20618;-80
2024/04/13 09:55:45;;;;;;;6.33;4.13;;;21.30;13.20;;;;;;5450430;26;20629;-80
2024/04/13 09:58:14;;;;;;;7.70;4.53;;;21.20;12.30;;;;;;5451820;26;20262;-81
2024/04/13 10:00:43;;;;;;;5.97;4.30;;;21.10;11.50;;;;;;5450309;26;20315;-80
2024/04/13 10:03:13;;;;;;;6.40;4.27;;;21.10;16.10;;;;;;5452205;26;20257;-80
2024/04/13 10:05:40;;;;;;;9.07;3.80;;;21.20;16.50;;;;;;5452294;26;20332;-80
2024/04/13 10:08:10;;;;;;;6.57;3.87;;;21.40;14.90;;;;;;5450696;26;20223;-79
2024/04/13 10:10:47;;;;;;;7.07;4.40;;;21.50;14.60;;;;;;5452011;26;20262;-81
2024/04/13 10:13:24;;;;;;;9.67;4.37;;;21.50;12.60;;;;;;5451681;26;20277;-79
2024/04/13 10:15:50;;;;;;;8.20;4.40;;;21.60;12.80;;;;;;5450035;26;20231;-81
2024/04/13 10:18:17;;;;;;;7.13;4.43;;;21.60;12.40;;;;;;5451969;26;20266;-80
2024/04/13 10:20:42;;;;;;;7.67;4.13;;;21.70;11.30;;;;;;5452330;26;20217;-81
2024/04/13 10:23:13;;;;;;;6.20;3.93;;;21.80;9.10;;;;;;5452867;26;20598;-79
2024/04/13 10:25:38;;;;;;;7.67;4.23;;;21.90;8.30;;;;;;5452380;26;20219;-81
2024/04/13 10:28:08;;;;;;;8.67;3.57;;;22.00;7.20;;;;;;5452857;26;20285;-81
2024/04/13 10:30:48;;;;;;;7.37;3.60;;;22.10;4.00;;;;;;5452615;26;20338;-80
2024/04/13 10:33:21;;;;;;;6.00;4.00;;;22.30;2.80;;;;;;5452167;26;20265;-80
2024/04/13 10:35:55;;;;;;;9.63;3.87;;;22.30;1.30;;;;;;5452147;26;20263;-80
2024/04/13 10:38:21;;;;;;;7.13;3.80;;;22.30;1.00;;;;;;5452675;26;20657;-81
2024/04/13 10:40:46;;;;;;;6.50;3.50;;;22.40;1.00;;;;;;5452781;26;20220;-81
2024/04/13 10:43:19;;;;;;;7.33;3.70;;;22.40;1.00;;;;;;5451617;26;20550;-80
2024/04/13 10:45:56;;;;;;;5.97;3.60;;;22.40;1.00;;;;;;5453131;26;20668;-81
2024/04/13 10:48:24;;;;;;;5.63;3.73;;;22.50;1.00;;;;;;5450516;26;20306;-80
2024/04/13 10:50:51;;;;;;;5.70;3.40;;;22.50;1.00;;;;;;5452486;26;20342;-79
2024/04/13 10:53:18;;;;;;;7.53;3.67;;;22.60;1.00;;;;;;5452312;26;20221;-80
2024/04/13 10:55:44;;;;;;;7.13;4.10;;;22.80;1.00;;;;;;5452657;26;20213;-80
2024/04/13 10:58:11;;;;;;;7.80;4.00;;;22.80;1.00;;;;;;5450500;26;20702;-80
2024/04/13 11:00:37;;;;;;;5.90;3.97;;;22.90;1.00;;;;;;5452093;26;20271;-80
2024/04/13 11:03:04;;;;;;;7.97;4.03;;;22.90;1.00;;;;;;5449138;26;20233;-81
2024/04/13 11:05:30;;;;;;;6.67;4.10;;;22.80;1.00;;;;;;5452073;26;20217;-80
2024/04/13 11:07:56;;;;;;;9.00;3.93;;;22.80;1.00;;;;;;5451550;26;20260;-80
2024/04/13 11:10:22;;;;;;;5.27;3.80;;;22.70;1.00;;;;;;5451628;26;20773;-79
2024/04/13 11:12:49;;;;;;;6.90;3.47;;;22.60;1.00;;;;;;5451302;26;20266;-80
2024/04/13 11:15:15;;;;;;;6.73;3.40;;;22.80;1.00;;;;;;5449548;26;20269;-79
2024/04/13 11:17:42;;;;;;;7.80;3.43;;;23.00;1.00;;;;;;5448365;26;20653;-80
2024/04/13 11:20:10;;;;;;;8.87;4.10;;;23.10;1.00;;;;;;5450070;26;20217;-80
2024/04/13 11:22:38;;;;;;;7.57;3.67;;;23.20;1.00;;;;;;5451049;26;20329;-80
2024/04/13 11:25:04;;;;;;;7.00;3.60;;;23.20;1.00;;;;;;5449917;26;20221;-80
2024/04/13 11:27:30;;;;;;;6.03;3.07;;;23.20;1.00;;;;;;5451464;26;20273;-80
2024/04/13 11:29:56;;;;;;;7.53;3.13;;;23.40;1.00;;;;;;5451851;26;20213;-80
2024/04/13 11:32:22;;;;;;;6.27;3.27;;;23.40;1.00;;;;;;5450651;26;20259;-80
2024/04/13 11:34:47;;;;;;;7.77;3.17;;;23.50;1.00;;;;;;5448981;26;20221;-80
2024/04/13 11:37:13;;;;;;;8.23;3.07;;;23.60;1.00;;;;;;5450273;26;20252;-80
2024/04/13 11:39:40;;;;;;;5.90;3.20;;;23.60;1.00;;;;;;5450830;26;20260;-80
2024/04/13 11:42:12;;;;;;;5.07;2.67;;;23.50;1.00;;;;;;5450625;26;20308;-80
2024/04/13 11:44:38;;;;;;;5.77;2.83;;;23.30;1.00;;;;;;5448995;26;20314;-81
2024/04/13 11:47:04;;;;;;;6.13;3.13;;;23.20;1.00;;;;;;5450181;26;20256;-79
2024/04/13 11:49:30;;;;;;;5.50;3.20;;;23.20;1.00;;;;;;5450637;26;20328;-80
2024/04/13 11:51:59;;;;;;;6.30;3.10;;;23.20;1.00;;;;;;5451126;26;20225;-80
2024/04/13 11:54:27;;;;;;;6.33;3.13;;;23.50;1.00;;;;;;5448713;26;20701;-80
2024/04/13 11:56:54;;;;;;;6.67;2.90;;;23.60;1.00;;;;;;5450993;26;20221;-80
2024/04/13 11:59:20;;;;;;;5.60;3.50;;;23.60;1.00;;;;;;5450148;26;20757;-80
2024/04/13 12:01:45;;;;;;;6.70;3.57;;;23.60;1.00;;;;;;5450755;26;20217;-79
2024/04/13 12:04:13;;;;;;;7.83;2.97;;;23.70;1.00;;;;;;5452339;26;20682;-79
2024/04/13 12:06:40;;;;;;;6.30;3.30;;;23.80;1.00;;;;;;5455046;26;20256;-79
2024/04/13 12:09:06;;;;;;;6.63;3.00;;;23.80;1.00;;;;;;5452303;26;20217;-80
2024/04/13 12:11:32;;;;;;;6.47;3.43;;;23.90;1.00;;;;;;5454447;26;20294;-80
2024/04/13 12:13:59;;;;;;;6.20;2.93;;;23.90;1.00;;;;;;5451881;26;20249;-80
2024/04/13 12:16:25;;;;;;;5.53;3.27;;;23.90;1.00;;;;;;5451896;26;20229;-79
2024/04/13 12:18:51;;;;;;;4.57;2.67;;;24.00;1.00;;;;;;5453895;26;20259;-79
2024/04/13 12:21:17;;;;;;;4.80;3.00;;;24.00;1.00;;;;;;5453408;26;20213;-80
2024/04/13 12:23:43;;;;;;;6.70;3.00;;;24.00;1.00;;;;;;5451963;26;20217;-80
2024/04/13 12:26:10;;;;;;;5.77;3.03;;;24.10;1.00;;;;;;5453075;26;20341;-79
2024/04/13 12:28:36;;;;;;;7.20;2.87;;;24.40;1.00;;;;;;5451135;26;20217;-80
2024/04/13 12:31:02;;;;;;;9.43;7.70;;;24.40;1.00;;;;;;5453394;26;20654;-80
2024/04/13 12:33:28;;;;;;;9.90;4.30;;;24.50;1.00;;;;;;5453240;26;20276;-79
2024/04/13 12:35:55;;;;;;;5.83;2.80;;;24.40;1.00;;;;;;5451516;26;20234;-80
2024/04/13 12:38:24;;;;;;;5.37;3.00;;;24.40;1.00;;;;;;5451380;26;20548;-79
2024/04/13 12:40:50;;;;;;;5.43;3.03;;;24.20;1.00;;;;;;5453605;26;20214;-79